BIENTÔT MET'MAP
version 2.0 !

Prévue avant fin octobre,
la nouvelle version sera
plus belle, plus complète
et hébergée sur un serveur
3 fois plus puissant...
et toujours gratuite !


Pas compatible ?
Essayez la version Mobile !

SE CONNECTER : | S'inscrire | Disclaimer | Découvrir Orbifly |
Code OACI :

TAF - LGMK Mikonos - 27 May 2020 05:34 UTC - Data Source NOAA   


- Altitude de l'aérodrome : 405 ft
- Code IATA : JMK
- Pas de NOTAMs connus.


LGMK - Mikonos

Dernier METAR connu : 2015/08/11 07:50 LGMK 110750Z 31008KT CAVOK 27/19 Q1011
TAF TAF LGMK
Valide du 27 à 03h jusqu'au 27 à 12h UTC


270200Z 2703/2712 34015KT 9999 FEW015 SCT025
PROB30
TEMPO 2703/2712 5000 RA FEW018TCU BKN025
PROB30 2703/2712 4000 TSRA SCT015 FEW018CB BKN020

Source NOAA


MET'MAP, la Météo Aéronautique d'un coup d'oeil ! - Copyright ORBIFLY Décembre 2007

Développement & Programmation : Alexandra Zaïnal
Co-Développement : Marc-Olivier Méhu
Soutien technique & logistique : Manuel Goepfert
Conception & Financement : Baudouin d'Aumeries